sensor_id;sensor_type;location;lat;lon;timestamp;P1;durP1;ratioP1;P2;durP2;ratioP2
5137;SDS011;53959;53.626;11.410;2023-08-20T00:00:25;1836.37;;;844.57;;
5137;SDS011;53959;53.626;11.410;2023-08-20T00:02:51;1834.93;;;841.73;;
5137;SDS011;53959;53.626;11.410;2023-08-20T00:05:24;1819.03;;;838.87;;
5137;SDS011;53959;53.626;11.410;2023-08-20T00:07:49;1821.67;;;841.70;;
5137;SDS011;53959;53.626;11.410;2023-08-20T00:10:15;1824.83;;;840.87;;
5137;SDS011;53959;53.626;11.410;2023-08-20T00:12:40;1800.37;;;833.67;;
5137;SDS011;53959;53.626;11.410;2023-08-20T00:15:06;1796.87;;;838.33;;
5137;SDS011;53959;53.626;11.410;2023-08-20T00:17:32;1816.70;;;846.07;;
5137;SDS011;53959;53.626;11.410;2023-08-20T00:19:58;1822.10;;;843.57;;
5137;SDS011;53959;53.626;11.410;2023-08-20T00:22:24;1812.87;;;841.30;;
5137;SDS011;53959;53.626;11.410;2023-08-20T00:24:51;1806.20;;;843.57;;
5137;SDS011;53959;53.626;11.410;2023-08-20T00:27:20;1808.97;;;842.73;;
5137;SDS011;53959;53.626;11.410;2023-08-20T00:29:46;1805.40;;;843.07;;
5137;SDS011;53959;53.626;11.410;2023-08-20T00:32:12;1808.33;;;840.43;;
5137;SDS011;53959;53.626;11.410;2023-08-20T00:34:37;1804.60;;;839.97;;
5137;SDS011;53959;53.626;11.410;2023-08-20T00:37:03;1827.87;;;847.60;;
5137;SDS011;53959;53.626;11.410;2023-08-20T00:39:28;1825.83;;;842.93;;
5137;SDS011;53959;53.626;11.410;2023-08-20T00:41:55;1825.33;;;844.90;;
5137;SDS011;53959;53.626;11.410;2023-08-20T00:44:20;1806.70;;;841.37;;
5137;SDS011;53959;53.626;11.410;2023-08-20T00:46:47;1828.23;;;842.93;;
5137;SDS011;53959;53.626;11.410;2023-08-20T00:49:12;1829.57;;;841.70;;
5137;SDS011;53959;53.626;11.410;2023-08-20T00:51:38;1827.33;;;845.83;;
5137;SDS011;53959;53.626;11.410;2023-08-20T00:54:05;1844.83;;;847.90;;
5137;SDS011;53959;53.626;11.410;2023-08-20T00:56:32;1819.90;;;845.40;;
5137;SDS011;53959;53.626;11.410;2023-08-20T00:58:57;1809.63;;;836.43;;
5137;SDS011;53959;53.626;11.410;2023-08-20T01:01:24;1825.63;;;842.60;;
5137;SDS011;53959;53.626;11.410;2023-08-20T01:03:49;1823.77;;;844.90;;
5137;SDS011;53959;53.626;11.410;2023-08-20T01:06:37;1819.53;;;842.17;;
5137;SDS011;53959;53.626;11.410;2023-08-20T01:09:32;1803.60;;;846.90;;
5137;SDS011;53959;53.626;11.410;2023-08-20T01:12:08;1798.00;;;845.90;;
5137;SDS011;53959;53.626;11.410;2023-08-20T01:14:35;1813.03;;;846.03;;
5137;SDS011;53959;53.626;11.410;2023-08-20T01:17:00;1798.40;;;841.77;;
5137;SDS011;53959;53.626;11.410;2023-08-20T01:19:26;1786.70;;;838.33;;
5137;SDS011;53959;53.626;11.410;2023-08-20T01:24:56;1783.43;;;845.70;;
5137;SDS011;53959;53.626;11.410;2023-08-20T01:27:44;1761.03;;;842.47;;
5137;SDS011;53959;53.626;11.410;2023-08-20T01:30:15;1754.50;;;842.23;;
5137;SDS011;53959;53.626;11.410;2023-08-20T01:32:40;1796.53;;;847.30;;
5137;SDS011;53959;53.626;11.410;2023-08-20T01:35:13;1774.23;;;845.90;;
5137;SDS011;53959;53.626;11.410;2023-08-20T01:37:39;1769.80;;;842.53;;
5137;SDS011;53959;53.626;11.410;2023-08-20T01:40:05;1774.53;;;843.47;;
5137;SDS011;53959;53.626;11.410;2023-08-20T01:42:33;1785.47;;;847.50;;
5137;SDS011;53959;53.626;11.410;2023-08-20T01:44:58;1778.70;;;845.47;;
5137;SDS011;53959;53.626;11.410;2023-08-20T01:47:24;1779.90;;;845.83;;
5137;SDS011;53959;53.626;11.410;2023-08-20T01:49:51;1764.80;;;844.97;;
5137;SDS011;53959;53.626;11.410;2023-08-20T01:52:16;1763.57;;;843.23;;
5137;SDS011;53959;53.626;11.410;2023-08-20T01:54:42;1761.33;;;843.50;;
5137;SDS011;53959;53.626;11.410;2023-08-20T01:57:07;1756.70;;;840.33;;
5137;SDS011;53959;53.626;11.410;2023-08-20T01:59:32;1770.73;;;845.37;;
5137;SDS011;53959;53.626;11.410;2023-08-20T02:01:58;1953.77;;;841.67;;
5137;SDS011;53959;53.626;11.410;2023-08-20T02:04:23;1970.80;;;842.20;;
5137;SDS011;53959;53.626;11.410;2023-08-20T02:06:48;1991.77;;;843.40;;
5137;SDS011;53959;53.626;11.410;2023-08-20T02:09:14;1995.50;;;841.73;;
5137;SDS011;53959;53.626;11.410;2023-08-20T02:11:40;1999.43;;;842.80;;
5137;SDS011;53959;53.626;11.410;2023-08-20T02:14:05;1996.13;;;843.43;;
5137;SDS011;53959;53.626;11.410;2023-08-20T02:16:31;1999.90;;;841.97;;
5137;SDS011;53959;53.626;11.410;2023-08-20T02:18:58;1999.90;;;846.03;;
5137;SDS011;53959;53.626;11.410;2023-08-20T02:21:23;1807.17;;;843.43;;
5137;SDS011;53959;53.626;11.410;2023-08-20T02:23:49;1988.20;;;841.73;;
5137;SDS011;53959;53.626;11.410;2023-08-20T02:26:15;1994.07;;;841.80;;
5137;SDS011;53959;53.626;11.410;2023-08-20T02:28:40;1995.90;;;842.00;;
5137;SDS011;53959;53.626;11.410;2023-08-20T02:31:06;1999.80;;;843.50;;
5137;SDS011;53959;53.626;11.410;2023-08-20T02:33:31;1998.23;;;841.40;;
5137;SDS011;53959;53.626;11.410;2023-08-20T02:36:03;1999.17;;;843.00;;
5137;SDS011;53959;53.626;11.410;2023-08-20T02:38:29;1996.60;;;843.07;;
5137;SDS011;53959;53.626;11.410;2023-08-20T02:40:55;1994.13;;;844.10;;
5137;SDS011;53959;53.626;11.410;2023-08-20T02:43:20;1989.00;;;840.67;;
5137;SDS011;53959;53.626;11.410;2023-08-20T02:45:46;1991.40;;;842.87;;
5137;SDS011;53959;53.626;11.410;2023-08-20T02:48:11;1989.90;;;841.10;;
5137;SDS011;53959;53.626;11.410;2023-08-20T02:50:38;1994.10;;;843.47;;
5137;SDS011;53959;53.626;11.410;2023-08-20T02:53:03;1999.90;;;844.90;;
5137;SDS011;53959;53.626;11.410;2023-08-20T02:55:30;1997.67;;;841.70;;
5137;SDS011;53959;53.626;11.410;2023-08-20T02:57:55;1975.80;;;837.40;;
5137;SDS011;53959;53.626;11.410;2023-08-20T03:00:21;1999.90;;;844.37;;
5137;SDS011;53959;53.626;11.410;2023-08-20T03:02:46;1999.00;;;842.77;;
5137;SDS011;53959;53.626;11.410;2023-08-20T03:05:11;1996.00;;;840.13;;
5137;SDS011;53959;53.626;11.410;2023-08-20T03:07:37;1998.37;;;840.67;;
5137;SDS011;53959;53.626;11.410;2023-08-20T03:10:02;1999.90;;;842.63;;
5137;SDS011;53959;53.626;11.410;2023-08-20T03:12:28;1998.90;;;842.90;;
5137;SDS011;53959;53.626;11.410;2023-08-20T03:14:54;1999.90;;;841.77;;
5137;SDS011;53959;53.626;11.410;2023-08-20T03:17:20;1999.10;;;841.70;;
5137;SDS011;53959;53.626;11.410;2023-08-20T03:19:58;1999.90;;;842.10;;
5137;SDS011;53959;53.626;11.410;2023-08-20T03:22:25;1999.23;;;841.60;;
5137;SDS011;53959;53.626;11.410;2023-08-20T03:24:51;1999.90;;;843.03;;
5137;SDS011;53959;53.626;11.410;2023-08-20T03:27:17;1999.90;;;841.77;;
5137;SDS011;53959;53.626;11.410;2023-08-20T03:29:43;1999.90;;;841.67;;
5137;SDS011;53959;53.626;11.410;2023-08-20T03:32:10;1999.90;;;841.47;;
5137;SDS011;53959;53.626;11.410;2023-08-20T03:34:35;1999.90;;;842.47;;
5137;SDS011;53959;53.626;11.410;2023-08-20T03:37:01;1999.90;;;842.17;;
5137;SDS011;53959;53.626;11.410;2023-08-20T03:39:26;1999.90;;;844.27;;
5137;SDS011;53959;53.626;11.410;2023-08-20T03:41:52;1999.90;;;842.90;;
5137;SDS011;53959;53.626;11.410;2023-08-20T03:44:18;1999.90;;;841.80;;
5137;SDS011;53959;53.626;11.410;2023-08-20T03:46:44;1999.90;;;842.30;;
5137;SDS011;53959;53.626;11.410;2023-08-20T03:49:09;1997.93;;;842.27;;
5137;SDS011;53959;53.626;11.410;2023-08-20T03:51:35;1999.90;;;842.83;;
5137;SDS011;53959;53.626;11.410;2023-08-20T03:54:00;1998.87;;;840.67;;
5137;SDS011;53959;53.626;11.410;2023-08-20T03:56:26;1999.17;;;843.67;;
5137;SDS011;53959;53.626;11.410;2023-08-20T03:58:51;1998.40;;;841.30;;
5137;SDS011;53959;53.626;11.410;2023-08-20T04:01:19;1999.90;;;842.60;;
5137;SDS011;53959;53.626;11.410;2023-08-20T04:03:47;1998.13;;;841.87;;
5137;SDS011;53959;53.626;11.410;2023-08-20T04:06:14;1996.63;;;841.90;;
5137;SDS011;53959;53.626;11.410;2023-08-20T04:08:40;1998.20;;;842.03;;
5137;SDS011;53959;53.626;11.410;2023-08-20T04:11:05;1999.90;;;843.40;;
5137;SDS011;53959;53.626;11.410;2023-08-20T04:13:31;1999.90;;;843.07;;
5137;SDS011;53959;53.626;11.410;2023-08-20T04:15:57;1999.90;;;841.10;;
5137;SDS011;53959;53.626;11.410;2023-08-20T04:18:23;1999.90;;;840.73;;
5137;SDS011;53959;53.626;11.410;2023-08-20T04:20:51;1994.40;;;843.20;;
5137;SDS011;53959;53.626;11.410;2023-08-20T04:23:18;1995.67;;;842.90;;
5137;SDS011;53959;53.626;11.410;2023-08-20T04:25:44;1994.77;;;843.77;;
5137;SDS011;53959;53.626;11.410;2023-08-20T04:28:11;1993.00;;;843.87;;
5137;SDS011;53959;53.626;11.410;2023-08-20T04:30:37;1991.67;;;842.57;;
5137;SDS011;53959;53.626;11.410;2023-08-20T04:33:03;1996.77;;;843.07;;
5137;SDS011;53959;53.626;11.410;2023-08-20T04:35:29;1996.90;;;842.27;;
5137;SDS011;53959;53.626;11.410;2023-08-20T04:37:54;1995.93;;;843.70;;
5137;SDS011;53959;53.626;11.410;2023-08-20T04:40:20;1997.50;;;843.43;;
5137;SDS011;53959;53.626;11.410;2023-08-20T04:42:45;1999.83;;;845.90;;
5137;SDS011;53959;53.626;11.410;2023-08-20T04:45:11;1999.90;;;845.30;;
5137;SDS011;53959;53.626;11.410;2023-08-20T04:47:38;1997.00;;;842.47;;
5137;SDS011;53959;53.626;11.410;2023-08-20T04:50:03;1998.60;;;842.67;;
5137;SDS011;53959;53.626;11.410;2023-08-20T04:52:32;1999.90;;;844.97;;
5137;SDS011;53959;53.626;11.410;2023-08-20T04:54:57;1998.50;;;840.90;;
5137;SDS011;53959;53.626;11.410;2023-08-20T04:57:23;1999.90;;;845.87;;
5137;SDS011;53959;53.626;11.410;2023-08-20T04:59:48;1999.90;;;843.63;;
5137;SDS011;53959;53.626;11.410;2023-08-20T05:02:40;1999.90;;;844.40;;
5137;SDS011;53959;53.626;11.410;2023-08-20T05:05:05;1999.90;;;842.57;;
5137;SDS011;53959;53.626;11.410;2023-08-20T05:07:31;1999.90;;;844.10;;
5137;SDS011;53959;53.626;11.410;2023-08-20T05:09:57;1999.90;;;843.73;;
5137;SDS011;53959;53.626;11.410;2023-08-20T05:12:22;1999.90;;;842.97;;
5137;SDS011;53959;53.626;11.410;2023-08-20T05:14:48;1999.90;;;842.67;;
5137;SDS011;53959;53.626;11.410;2023-08-20T05:17:13;1999.90;;;844.23;;
5137;SDS011;53959;53.626;11.410;2023-08-20T05:19:38;1999.90;;;843.90;;
5137;SDS011;53959;53.626;11.410;2023-08-20T05:22:04;1999.90;;;843.70;;
5137;SDS011;53959;53.626;11.410;2023-08-20T05:24:32;1999.90;;;843.50;;
5137;SDS011;53959;53.626;11.410;2023-08-20T05:27:16;1999.90;;;842.53;;
5137;SDS011;53959;53.626;11.410;2023-08-20T05:29:44;1999.90;;;841.67;;
5137;SDS011;53959;53.626;11.410;2023-08-20T05:32:10;1999.90;;;844.97;;
5137;SDS011;53959;53.626;11.410;2023-08-20T05:34:36;1999.90;;;842.40;;
5137;SDS011;53959;53.626;11.410;2023-08-20T05:37:02;1999.90;;;845.67;;
5137;SDS011;53959;53.626;11.410;2023-08-20T05:39:40;1999.90;;;843.00;;
5137;SDS011;53959;53.626;11.410;2023-08-20T05:42:07;1999.90;;;843.40;;
5137;SDS011;53959;53.626;11.410;2023-08-20T05:44:33;1999.90;;;845.00;;
5137;SDS011;53959;53.626;11.410;2023-08-20T05:46:59;1999.90;;;842.23;;
5137;SDS011;53959;53.626;11.410;2023-08-20T05:49:26;1999.90;;;843.87;;
5137;SDS011;53959;53.626;11.410;2023-08-20T05:51:51;1999.90;;;842.67;;
5137;SDS011;53959;53.626;11.410;2023-08-20T05:54:17;1999.90;;;842.33;;
5137;SDS011;53959;53.626;11.410;2023-08-20T05:56:42;1999.90;;;844.50;;
5137;SDS011;53959;53.626;11.410;2023-08-20T05:59:08;1999.90;;;845.47;;
5137;SDS011;53959;53.626;11.410;2023-08-20T06:01:33;1999.90;;;843.37;;
5137;SDS011;53959;53.626;11.410;2023-08-20T06:03:59;1999.90;;;845.10;;
5137;SDS011;53959;53.626;11.410;2023-08-20T06:06:25;1999.90;;;843.47;;
5137;SDS011;53959;53.626;11.410;2023-08-20T06:08:51;1999.90;;;844.80;;
5137;SDS011;53959;53.626;11.410;2023-08-20T06:11:16;1999.90;;;842.53;;
5137;SDS011;53959;53.626;11.410;2023-08-20T06:13:42;1999.90;;;843.73;;
5137;SDS011;53959;53.626;11.410;2023-08-20T06:16:07;1999.90;;;844.00;;
5137;SDS011;53959;53.626;11.410;2023-08-20T06:18:32;1999.90;;;842.50;;
5137;SDS011;53959;53.626;11.410;2023-08-20T06:20:58;1999.90;;;843.77;;
5137;SDS011;53959;53.626;11.410;2023-08-20T06:23:23;1999.90;;;841.87;;
5137;SDS011;53959;53.626;11.410;2023-08-20T06:25:50;1999.90;;;837.83;;
5137;SDS011;53959;53.626;11.410;2023-08-20T06:28:15;1999.90;;;844.07;;
5137;SDS011;53959;53.626;11.410;2023-08-20T06:30:41;1999.90;;;842.87;;
5137;SDS011;53959;53.626;11.410;2023-08-20T06:33:06;1999.90;;;841.63;;
5137;SDS011;53959;53.626;11.410;2023-08-20T06:35:32;1999.90;;;844.87;;
5137;SDS011;53959;53.626;11.410;2023-08-20T06:37:57;1999.90;;;845.47;;
5137;SDS011;53959;53.626;11.410;2023-08-20T06:40:22;1999.90;;;872.33;;
5137;SDS011;53959;53.626;11.410;2023-08-20T06:42:48;1999.90;;;930.03;;
5137;SDS011;53959;53.626;11.410;2023-08-20T06:45:13;1999.90;;;949.73;;
5137;SDS011;53959;53.626;11.410;2023-08-20T06:47:38;1999.90;;;983.27;;
5137;SDS011;53959;53.626;11.410;2023-08-20T06:50:04;1999.90;;;979.40;;
5137;SDS011;53959;53.626;11.410;2023-08-20T06:52:31;1997.53;;;841.20;;
5137;SDS011;53959;53.626;11.410;2023-08-20T06:54:56;1981.40;;;840.57;;
5137;SDS011;53959;53.626;11.410;2023-08-20T06:57:21;1991.20;;;845.90;;
5137;SDS011;53959;53.626;11.410;2023-08-20T06:59:47;1965.73;;;843.77;;
5137;SDS011;53959;53.626;11.410;2023-08-20T07:02:12;1955.23;;;840.17;;
5137;SDS011;53959;53.626;11.410;2023-08-20T07:04:37;1965.40;;;843.73;;
5137;SDS011;53959;53.626;11.410;2023-08-20T07:07:03;1969.80;;;842.50;;
5137;SDS011;53959;53.626;11.410;2023-08-20T07:09:33;1967.13;;;844.07;;
5137;SDS011;53959;53.626;11.410;2023-08-20T07:11:58;1965.23;;;843.80;;
5137;SDS011;53959;53.626;11.410;2023-08-20T07:14:23;1977.93;;;844.40;;
5137;SDS011;53959;53.626;11.410;2023-08-20T07:16:49;1970.53;;;842.53;;
5137;SDS011;53959;53.626;11.410;2023-08-20T07:19:14;1972.53;;;842.93;;
5137;SDS011;53959;53.626;11.410;2023-08-20T07:21:40;1987.33;;;844.43;;
5137;SDS011;53959;53.626;11.410;2023-08-20T07:24:05;1990.77;;;843.73;;
5137;SDS011;53959;53.626;11.410;2023-08-20T07:26:31;1997.17;;;844.30;;
5137;SDS011;53959;53.626;11.410;2023-08-20T07:28:56;1982.27;;;842.57;;
5137;SDS011;53959;53.626;11.410;2023-08-20T07:31:25;1987.67;;;845.40;;
5137;SDS011;53959;53.626;11.410;2023-08-20T07:33:53;1974.90;;;845.33;;
5137;SDS011;53959;53.626;11.410;2023-08-20T07:36:20;1965.63;;;843.87;;
5137;SDS011;53959;53.626;11.410;2023-08-20T07:38:49;1962.50;;;844.73;;
5137;SDS011;53959;53.626;11.410;2023-08-20T07:41:15;1966.93;;;844.30;;
5137;SDS011;53959;53.626;11.410;2023-08-20T07:43:40;1967.67;;;846.77;;
5137;SDS011;53959;53.626;11.410;2023-08-20T07:46:07;1958.10;;;842.50;;
5137;SDS011;53959;53.626;11.410;2023-08-20T07:48:33;1968.67;;;845.13;;
5137;SDS011;53959;53.626;11.410;2023-08-20T07:50:59;1965.93;;;840.50;;
5137;SDS011;53959;53.626;11.410;2023-08-20T07:53:25;1986.33;;;843.93;;
5137;SDS011;53959;53.626;11.410;2023-08-20T07:55:51;1980.43;;;846.90;;
5137;SDS011;53959;53.626;11.410;2023-08-20T07:58:16;1975.67;;;846.10;;
5137;SDS011;53959;53.626;11.410;2023-08-20T08:00:42;1992.20;;;841.13;;
5137;SDS011;53959;53.626;11.410;2023-08-20T08:03:08;1999.90;;;845.37;;
5137;SDS011;53959;53.626;11.410;2023-08-20T08:05:34;1999.90;;;846.57;;
5137;SDS011;53959;53.626;11.410;2023-08-20T08:08:02;1999.70;;;851.20;;
5137;SDS011;53959;53.626;11.410;2023-08-20T08:10:28;1972.73;;;851.07;;
5137;SDS011;53959;53.626;11.410;2023-08-20T08:12:54;1944.20;;;851.83;;
5137;SDS011;53959;53.626;11.410;2023-08-20T08:15:19;1948.73;;;850.73;;
5137;SDS011;53959;53.626;11.410;2023-08-20T08:17:45;1928.17;;;849.47;;
5137;SDS011;53959;53.626;11.410;2023-08-20T08:20:10;1910.37;;;847.40;;
5137;SDS011;53959;53.626;11.410;2023-08-20T08:22:35;1899.03;;;847.47;;
5137;SDS011;53959;53.626;11.410;2023-08-20T08:25:01;1846.07;;;845.20;;
5137;SDS011;53959;53.626;11.410;2023-08-20T08:27:26;1871.73;;;857.33;;
5137;SDS011;53959;53.626;11.410;2023-08-20T08:29:51;1756.07;;;848.00;;
5137;SDS011;53959;53.626;11.410;2023-08-20T08:32:17;1756.77;;;848.80;;
5137;SDS011;53959;53.626;11.410;2023-08-20T08:34:42;1750.30;;;848.17;;
5137;SDS011;53959;53.626;11.410;2023-08-20T08:37:07;1748.57;;;847.70;;
5137;SDS011;53959;53.626;11.410;2023-08-20T08:39:33;1800.70;;;850.20;;
5137;SDS011;53959;53.626;11.410;2023-08-20T08:42:00;1749.40;;;848.17;;
5137;SDS011;53959;53.626;11.410;2023-08-20T08:44:34;1764.00;;;848.50;;
5137;SDS011;53959;53.626;11.410;2023-08-20T08:47:01;1787.63;;;849.27;;
5137;SDS011;53959;53.626;11.410;2023-08-20T08:49:27;1777.20;;;850.97;;
5137;SDS011;53959;53.626;11.410;2023-08-20T08:51:55;1760.07;;;848.57;;
5137;SDS011;53959;53.626;11.410;2023-08-20T08:54:21;1766.33;;;849.77;;
5137;SDS011;53959;53.626;11.410;2023-08-20T08:56:47;1771.77;;;848.77;;
5137;SDS011;53959;53.626;11.410;2023-08-20T08:59:12;1784.10;;;851.63;;
5137;SDS011;53959;53.626;11.410;2023-08-20T09:01:38;1952.03;;;896.60;;
5137;SDS011;53959;53.626;11.410;2023-08-20T09:04:04;1835.00;;;845.00;;
5137;SDS011;53959;53.626;11.410;2023-08-20T09:06:43;1823.57;;;848.30;;
5137;SDS011;53959;53.626;11.410;2023-08-20T09:09:10;1846.67;;;849.83;;
5137;SDS011;53959;53.626;11.410;2023-08-20T09:11:35;1870.17;;;851.67;;
5137;SDS011;53959;53.626;11.410;2023-08-20T09:14:04;1885.27;;;860.57;;
5137;SDS011;53959;53.626;11.410;2023-08-20T09:16:30;1868.10;;;856.00;;
5137;SDS011;53959;53.626;11.410;2023-08-20T09:18:58;1835.10;;;848.33;;
5137;SDS011;53959;53.626;11.410;2023-08-20T09:21:28;1820.63;;;847.70;;
5137;SDS011;53959;53.626;11.410;2023-08-20T09:23:54;1820.13;;;849.13;;
5137;SDS011;53959;53.626;11.410;2023-08-20T09:26:20;1840.07;;;848.13;;
5137;SDS011;53959;53.626;11.410;2023-08-20T09:28:46;1860.10;;;853.90;;
5137;SDS011;53959;53.626;11.410;2023-08-20T09:31:12;1885.27;;;868.30;;
5137;SDS011;53959;53.626;11.410;2023-08-20T09:33:51;1833.43;;;848.63;;
5137;SDS011;53959;53.626;11.410;2023-08-20T09:36:17;1842.43;;;852.73;;
5137;SDS011;53959;53.626;11.410;2023-08-20T09:38:43;1857.47;;;858.00;;
5137;SDS011;53959;53.626;11.410;2023-08-20T09:41:08;1860.27;;;857.03;;
5137;SDS011;53959;53.626;11.410;2023-08-20T09:43:35;1884.40;;;870.87;;
5137;SDS011;53959;53.626;11.410;2023-08-20T09:46:03;1868.77;;;864.20;;
5137;SDS011;53959;53.626;11.410;2023-08-20T09:48:29;1863.53;;;860.40;;
5137;SDS011;53959;53.626;11.410;2023-08-20T09:51:00;1837.83;;;856.83;;
5137;SDS011;53959;53.626;11.410;2023-08-20T09:53:34;1840.33;;;858.70;;
5137;SDS011;53959;53.626;11.410;2023-08-20T09:56:15;1867.13;;;869.83;;
5137;SDS011;53959;53.626;11.410;2023-08-20T09:58:46;1828.40;;;854.30;;
5137;SDS011;53959;53.626;11.410;2023-08-20T10:01:14;1817.10;;;853.03;;
5137;SDS011;53959;53.626;11.410;2023-08-20T10:03:40;1795.13;;;849.23;;
5137;SDS011;53959;53.626;11.410;2023-08-20T10:06:07;1778.87;;;848.70;;
5137;SDS011;53959;53.626;11.410;2023-08-20T10:08:34;1776.83;;;847.67;;
5137;SDS011;53959;53.626;11.410;2023-08-20T10:10:59;1782.43;;;848.63;;
5137;SDS011;53959;53.626;11.410;2023-08-20T10:13:25;1781.63;;;846.77;;
5137;SDS011;53959;53.626;11.410;2023-08-20T10:15:50;1791.37;;;848.57;;
5137;SDS011;53959;53.626;11.410;2023-08-20T10:18:19;1777.57;;;847.17;;
5137;SDS011;53959;53.626;11.410;2023-08-20T10:20:45;1772.07;;;844.80;;
5137;SDS011;53959;53.626;11.410;2023-08-20T10:23:10;1770.53;;;843.97;;
5137;SDS011;53959;53.626;11.410;2023-08-20T10:25:40;1772.00;;;846.20;;
5137;SDS011;53959;53.626;11.410;2023-08-20T10:28:11;1777.30;;;846.07;;
5137;SDS011;53959;53.626;11.410;2023-08-20T10:33:37;1775.50;;;843.53;;
5137;SDS011;53959;53.626;11.410;2023-08-20T10:36:08;1796.93;;;846.40;;
5137;SDS011;53959;53.626;11.410;2023-08-20T10:38:37;1793.60;;;845.80;;
5137;SDS011;53959;53.626;11.410;2023-08-20T10:41:05;1848.00;;;844.50;;
5137;SDS011;53959;53.626;11.410;2023-08-20T10:46:06;1873.73;;;845.40;;
5137;SDS011;53959;53.626;11.410;2023-08-20T10:48:42;1888.50;;;852.40;;
5137;SDS011;53959;53.626;11.410;2023-08-20T10:53:37;1896.83;;;846.13;;
5137;SDS011;53959;53.626;11.410;2023-08-20T10:56:11;1899.57;;;845.57;;
5137;SDS011;53959;53.626;11.410;2023-08-20T10:58:40;1905.23;;;845.67;;
5137;SDS011;53959;53.626;11.410;2023-08-20T11:01:20;1914.40;;;846.90;;
5137;SDS011;53959;53.626;11.410;2023-08-20T11:03:48;1891.13;;;844.60;;
5137;SDS011;53959;53.626;11.410;2023-08-20T11:06:15;1914.97;;;845.00;;
5137;SDS011;53959;53.626;11.410;2023-08-20T11:08:41;1830.67;;;842.50;;
5137;SDS011;53959;53.626;11.410;2023-08-20T11:11:07;1836.87;;;846.57;;
5137;SDS011;53959;53.626;11.410;2023-08-20T11:13:33;1839.87;;;844.10;;
5137;SDS011;53959;53.626;11.410;2023-08-20T11:15:59;1842.63;;;844.27;;
5137;SDS011;53959;53.626;11.410;2023-08-20T11:18:29;1835.67;;;845.10;;
5137;SDS011;53959;53.626;11.410;2023-08-20T11:20:56;1846.40;;;846.17;;
5137;SDS011;53959;53.626;11.410;2023-08-20T11:23:22;1856.90;;;845.43;;
5137;SDS011;53959;53.626;11.410;2023-08-20T11:25:47;1857.53;;;847.40;;
5137;SDS011;53959;53.626;11.410;2023-08-20T11:28:13;1854.87;;;845.80;;
5137;SDS011;53959;53.626;11.410;2023-08-20T11:30:38;1861.43;;;847.33;;
5137;SDS011;53959;53.626;11.410;2023-08-20T11:33:04;1850.03;;;846.17;;
5137;SDS011;53959;53.626;11.410;2023-08-20T11:35:30;1855.13;;;846.00;;
5137;SDS011;53959;53.626;11.410;2023-08-20T11:37:56;1865.10;;;847.63;;
5137;SDS011;53959;53.626;11.410;2023-08-20T11:40:23;1860.00;;;843.80;;
5137;SDS011;53959;53.626;11.410;2023-08-20T11:42:48;1878.77;;;847.93;;
5137;SDS011;53959;53.626;11.410;2023-08-20T11:45:14;1863.73;;;843.60;;
5137;SDS011;53959;53.626;11.410;2023-08-20T11:47:40;1880.07;;;845.07;;
5137;SDS011;53959;53.626;11.410;2023-08-20T11:50:07;1863.40;;;847.97;;
5137;SDS011;53959;53.626;11.410;2023-08-20T11:52:33;1856.43;;;845.73;;
5137;SDS011;53959;53.626;11.410;2023-08-20T11:55:01;1852.93;;;846.93;;
5137;SDS011;53959;53.626;11.410;2023-08-20T11:57:28;1849.20;;;847.30;;
5137;SDS011;53959;53.626;11.410;2023-08-20T11:59:53;1848.23;;;845.83;;
5137;SDS011;53959;53.626;11.410;2023-08-20T12:02:25;1855.80;;;846.97;;
5137;SDS011;53959;53.626;11.410;2023-08-20T12:04:54;1836.70;;;844.03;;
5137;SDS011;53959;53.626;11.410;2023-08-20T12:07:20;1851.90;;;846.50;;
5137;SDS011;53959;53.626;11.410;2023-08-20T12:09:52;1845.07;;;847.03;;
5137;SDS011;53959;53.626;11.410;2023-08-20T12:12:19;1842.73;;;846.17;;
5137;SDS011;53959;53.626;11.410;2023-08-20T12:14:45;1847.53;;;846.40;;
5137;SDS011;53959;53.626;11.410;2023-08-20T12:17:11;1848.23;;;845.87;;
5137;SDS011;53959;53.626;11.410;2023-08-20T12:19:36;1855.80;;;845.60;;
5137;SDS011;53959;53.626;11.410;2023-08-20T12:22:02;1858.53;;;847.47;;
5137;SDS011;53959;53.626;11.410;2023-08-20T12:24:28;1872.93;;;849.27;;
5137;SDS011;53959;53.626;11.410;2023-08-20T12:26:54;1863.17;;;846.80;;
5137;SDS011;53959;53.626;11.410;2023-08-20T12:29:19;1862.00;;;848.37;;
5137;SDS011;53959;53.626;11.410;2023-08-20T12:31:45;1868.23;;;847.17;;
5137;SDS011;53959;53.626;11.410;2023-08-20T12:34:11;1863.67;;;844.90;;
5137;SDS011;53959;53.626;11.410;2023-08-20T12:36:36;1873.10;;;847.17;;
5137;SDS011;53959;53.626;11.410;2023-08-20T12:39:02;1889.40;;;846.70;;
5137;SDS011;53959;53.626;11.410;2023-08-20T12:41:29;1888.70;;;860.80;;
5137;SDS011;53959;53.626;11.410;2023-08-20T12:43:54;1868.03;;;847.73;;
5137;SDS011;53959;53.626;11.410;2023-08-20T12:46:20;1867.57;;;848.53;;
5137;SDS011;53959;53.626;11.410;2023-08-20T12:48:45;1872.17;;;845.97;;
5137;SDS011;53959;53.626;11.410;2023-08-20T12:51:11;1874.07;;;848.27;;
5137;SDS011;53959;53.626;11.410;2023-08-20T12:53:39;1905.90;;;843.10;;
5137;SDS011;53959;53.626;11.410;2023-08-20T12:56:04;1915.70;;;846.47;;
5137;SDS011;53959;53.626;11.410;2023-08-20T12:58:30;1921.87;;;859.67;;
5137;SDS011;53959;53.626;11.410;2023-08-20T13:00:55;1885.03;;;856.87;;
5137;SDS011;53959;53.626;11.410;2023-08-20T13:03:21;1857.63;;;855.37;;
5137;SDS011;53959;53.626;11.410;2023-08-20T13:05:46;1848.57;;;857.23;;
5137;SDS011;53959;53.626;11.410;2023-08-20T13:08:12;1839.97;;;853.20;;
5137;SDS011;53959;53.626;11.410;2023-08-20T13:10:41;1846.87;;;854.80;;
5137;SDS011;53959;53.626;11.410;2023-08-20T13:13:10;1837.77;;;855.43;;
5137;SDS011;53959;53.626;11.410;2023-08-20T13:15:36;1812.93;;;851.90;;
5137;SDS011;53959;53.626;11.410;2023-08-20T13:18:02;1807.93;;;849.73;;
5137;SDS011;53959;53.626;11.410;2023-08-20T13:20:29;1817.50;;;851.70;;
5137;SDS011;53959;53.626;11.410;2023-08-20T13:22:54;1798.87;;;848.33;;
5137;SDS011;53959;53.626;11.410;2023-08-20T13:25:20;1799.67;;;851.70;;
5137;SDS011;53959;53.626;11.410;2023-08-20T13:27:48;1789.33;;;849.03;;
5137;SDS011;53959;53.626;11.410;2023-08-20T13:30:14;1774.77;;;847.47;;
5137;SDS011;53959;53.626;11.410;2023-08-20T13:32:40;1999.90;;;937.27;;
5137;SDS011;53959;53.626;11.410;2023-08-20T13:35:05;1779.10;;;846.97;;
5137;SDS011;53959;53.626;11.410;2023-08-20T13:37:31;1799.83;;;844.37;;
5137;SDS011;53959;53.626;11.410;2023-08-20T13:39:57;1788.20;;;848.90;;
5137;SDS011;53959;53.626;11.410;2023-08-20T13:42:23;1799.90;;;849.93;;
5137;SDS011;53959;53.626;11.410;2023-08-20T13:44:48;1812.37;;;849.47;;
5137;SDS011;53959;53.626;11.410;2023-08-20T13:47:13;1813.43;;;847.67;;
5137;SDS011;53959;53.626;11.410;2023-08-20T13:49:39;1833.03;;;850.67;;
5137;SDS011;53959;53.626;11.410;2023-08-20T13:52:04;1823.30;;;847.90;;